sensor_id;sensor_type;location;lat;lon;timestamp;pressure;altitude;pressure_sealevel;temperature;humidity
73398;BME280;63606;52.328;20.964;2022-10-16T00:01:22;100889.56;;;13.74;75.66
73398;BME280;63606;52.328;20.964;2022-10-16T00:03:48;100896.84;;;13.74;76.22
73398;BME280;63606;52.328;20.964;2022-10-16T00:06:16;100899.84;;;13.78;76.49
73398;BME280;63606;52.328;20.964;2022-10-16T00:08:42;100894.28;;;13.84;75.31
73398;BME280;63606;52.328;20.964;2022-10-16T00:11:16;100893.16;;;13.80;76.80
73398;BME280;63606;52.328;20.964;2022-10-16T00:13:44;100893.16;;;13.80;76.51
73398;BME280;63606;52.328;20.964;2022-10-16T00:16:11;100896.91;;;13.79;76.10
73398;BME280;63606;52.328;20.964;2022-10-16T00:18:37;100894.78;;;13.81;76.88
73398;BME280;63606;52.328;20.964;2022-10-16T00:21:05;100892.31;;;13.80;77.03
73398;BME280;63606;52.328;20.964;2022-10-16T00:23:31;100892.66;;;13.83;75.64
73398;BME280;63606;52.328;20.964;2022-10-16T00:25:59;100887.00;;;13.85;77.60
73398;BME280;63606;52.328;20.964;2022-10-16T00:28:25;100890.00;;;13.88;76.47
73398;BME280;63606;52.328;20.964;2022-10-16T00:30:51;100893.22;;;13.85;77.51
73398;BME280;63606;52.328;20.964;2022-10-16T00:33:17;100899.69;;;13.84;76.53
73398;BME280;63606;52.328;20.964;2022-10-16T00:35:42;100889.44;;;13.86;76.88
73398;BME280;63606;52.328;20.964;2022-10-16T00:38:09;100901.97;;;13.92;77.00
73398;BME280;63606;52.328;20.964;2022-10-16T00:40:34;100897.88;;;13.90;76.88
73398;BME280;63606;52.328;20.964;2022-10-16T00:43:00;100895.91;;;13.85;78.55
73398;BME280;63606;52.328;20.964;2022-10-16T00:45:25;100895.91;;;13.85;78.81
73398;BME280;63606;52.328;20.964;2022-10-16T00:47:53;100904.28;;;13.84;78.36
73398;BME280;63606;52.328;20.964;2022-10-16T00:50:30;100909.69;;;13.84;78.57
73398;BME280;63606;52.328;20.964;2022-10-16T00:52:58;100906.91;;;13.79;78.99
73398;BME280;63606;52.328;20.964;2022-10-16T00:55:26;100913.47;;;13.83;79.26
73398;BME280;63606;52.328;20.964;2022-10-16T00:57:53;100905.41;;;13.88;77.75
73398;BME280;63606;52.328;20.964;2022-10-16T01:00:24;100905.91;;;13.85;78.73
73398;BME280;63606;52.328;20.964;2022-10-16T01:02:59;100906.34;;;13.77;79.70
73398;BME280;63606;52.328;20.964;2022-10-16T01:05:48;100915.25;;;13.77;78.64
73398;BME280;63606;52.328;20.964;2022-10-16T01:13:52;100928.72;;;13.72;79.00
73398;BME280;63606;52.328;20.964;2022-10-16T01:16:53;100926.41;;;13.81;78.47
73398;BME280;63606;52.328;20.964;2022-10-16T01:19:36;100926.59;;;13.74;78.13
73398;BME280;63606;52.328;20.964;2022-10-16T01:22:05;100922.72;;;13.70;79.00
73398;BME280;63606;52.328;20.964;2022-10-16T01:24:38;100926.59;;;13.74;78.86
73398;BME280;63606;52.328;20.964;2022-10-16T01:27:13;100922.81;;;13.75;78.92
73398;BME280;63606;52.328;20.964;2022-10-16T01:29:53;100921.75;;;13.76;77.25
73398;BME280;63606;52.328;20.964;2022-10-16T01:32:28;100932.31;;;13.78;78.11
73398;BME280;63606;52.328;20.964;2022-10-16T01:35:05;100931.44;;;13.72;78.94
73398;BME280;63606;52.328;20.964;2022-10-16T01:37:48;100934.13;;;13.72;78.42
73398;BME280;63606;52.328;20.964;2022-10-16T01:40:17;100928.72;;;13.72;79.09
73398;BME280;63606;52.328;20.964;2022-10-16T01:43:06;100935.25;;;13.76;77.99
73398;BME280;63606;52.328;20.964;2022-10-16T01:45:34;100936.41;;;13.80;78.69
73398;BME280;63606;52.328;20.964;2022-10-16T01:48:02;100935.25;;;13.76;78.45
73398;BME280;63606;52.328;20.964;2022-10-16T01:50:32;100929.84;;;13.76;78.62
73398;BME280;63606;52.328;20.964;2022-10-16T01:52:59;100921.69;;;13.71;78.84
73398;BME280;63606;52.328;20.964;2022-10-16T01:55:33;100927.09;;;13.71;78.63
73398;BME280;63606;52.328;20.964;2022-10-16T01:58:01;100924.03;;;13.67;79.30
73398;BME280;63606;52.328;20.964;2022-10-16T02:00:28;100925.94;;;13.67;78.48
73398;BME280;63606;52.328;20.964;2022-10-16T02:02:54;100935.09;;;13.66;77.76
73398;BME280;63606;52.328;20.964;2022-10-16T02:08:08;100930.69;;;13.60;77.15
73398;BME280;63606;52.328;20.964;2022-10-16T02:10:35;100929.88;;;13.59;78.94
73398;BME280;63606;52.328;20.964;2022-10-16T02:15:39;100937.91;;;13.54;77.90
73398;BME280;63606;52.328;20.964;2022-10-16T02:18:06;100923.00;;;13.52;78.18
73398;BME280;63606;52.328;20.964;2022-10-16T02:20:37;100926.53;;;13.52;78.13
73398;BME280;63606;52.328;20.964;2022-10-16T02:23:07;100925.13;;;13.50;78.37
73398;BME280;63606;52.328;20.964;2022-10-16T02:25:40;100926.75;;;13.51;78.14
73398;BME280;63606;52.328;20.964;2022-10-16T02:28:16;100925.38;;;13.48;80.05
73398;BME280;63606;52.328;20.964;2022-10-16T02:30:45;100923.06;;;13.57;77.55
73398;BME280;63606;52.328;20.964;2022-10-16T02:33:15;100933.00;;;13.51;78.65
73398;BME280;63606;52.328;20.964;2022-10-16T02:35:43;100937.00;;;13.49;79.11
73398;BME280;63606;52.328;20.964;2022-10-16T02:38:11;100936.75;;;13.50;78.88
73398;BME280;63606;52.328;20.964;2022-10-16T02:40:37;100928.41;;;13.52;78.21
73398;BME280;63606;52.328;20.964;2022-10-16T02:43:05;100935.78;;;13.56;77.36
73398;BME280;63606;52.328;20.964;2022-10-16T02:45:30;100933.81;;;13.52;77.79
73398;BME280;63606;52.328;20.964;2022-10-16T02:47:56;100942.00;;;13.57;77.90
73398;BME280;63606;52.328;20.964;2022-10-16T02:50:22;100937.75;;;13.61;77.40
73398;BME280;63606;52.328;20.964;2022-10-16T02:52:47;100938.72;;;13.55;77.76
73398;BME280;63606;52.328;20.964;2022-10-16T02:55:13;100944.13;;;13.55;77.46
73398;BME280;63606;52.328;20.964;2022-10-16T02:57:39;100940.94;;;13.58;77.44
73398;BME280;63606;52.328;20.964;2022-10-16T03:00:07;100947.41;;;13.57;77.50
73398;BME280;63606;52.328;20.964;2022-10-16T03:02:33;100939.94;;;13.64;76.95
73398;BME280;63606;52.328;20.964;2022-10-16T03:04:59;100950.50;;;13.65;77.44
73398;BME280;63606;52.328;20.964;2022-10-16T03:07:24;100952.41;;;13.65;76.95
73398;BME280;63606;52.328;20.964;2022-10-16T03:09:50;100945.84;;;13.61;77.60
73398;BME280;63606;52.328;20.964;2022-10-16T03:12:15;100949.69;;;13.65;78.20
73398;BME280;63606;52.328;20.964;2022-10-16T03:14:41;100957.22;;;13.63;77.40
73398;BME280;63606;52.328;20.964;2022-10-16T03:17:06;100961.47;;;13.59;77.78
73398;BME280;63606;52.328;20.964;2022-10-16T03:19:32;100962.28;;;13.59;78.79
73398;BME280;63606;52.328;20.964;2022-10-16T03:21:57;100965.59;;;13.61;78.98
73398;BME280;63606;52.328;20.964;2022-10-16T03:24:23;100963.78;;;13.67;77.41
73398;BME280;63606;52.328;20.964;2022-10-16T03:26:48;100963.72;;;13.62;78.00
73398;BME280;63606;52.328;20.964;2022-10-16T03:29:14;100966.41;;;13.62;78.74
73398;BME280;63606;52.328;20.964;2022-10-16T03:31:39;100970.50;;;13.64;77.24
73398;BME280;63606;52.328;20.964;2022-10-16T03:34:05;100963.72;;;13.62;78.42
73398;BME280;63606;52.328;20.964;2022-10-16T03:36:30;100961.72;;;13.57;78.23
73398;BME280;63606;52.328;20.964;2022-10-16T03:38:56;100970.66;;;13.58;77.19
73398;BME280;63606;52.328;20.964;2022-10-16T03:41:22;100961.97;;;13.56;78.12
73398;BME280;63606;52.328;20.964;2022-10-16T03:43:47;100975.09;;;13.64;77.22
73398;BME280;63606;52.328;20.964;2022-10-16T03:46:13;100972.28;;;13.59;77.89
73398;BME280;63606;52.328;20.964;2022-10-16T03:48:38;100979.84;;;13.57;78.38
73398;BME280;63606;52.328;20.964;2022-10-16T03:51:05;100971.16;;;13.55;78.49
73398;BME280;63606;52.328;20.964;2022-10-16T03:53:31;100973.28;;;13.53;78.66
73398;BME280;63606;52.328;20.964;2022-10-16T03:55:56;100970.00;;;13.51;78.42
73398;BME280;63606;52.328;20.964;2022-10-16T03:58:22;100971.31;;;13.48;79.10
73398;BME280;63606;52.328;20.964;2022-10-16T04:00:47;100981.81;;;13.44;78.75
73398;BME280;63606;52.328;20.964;2022-10-16T04:03:13;100984.34;;;13.34;79.58
73398;BME280;63606;52.328;20.964;2022-10-16T04:05:39;100981.78;;;13.28;79.87
73398;BME280;63606;52.328;20.964;2022-10-16T04:08:05;100977.59;;;13.20;79.61
73398;BME280;63606;52.328;20.964;2022-10-16T04:10:31;100983.47;;;13.17;79.97
73398;BME280;63606;52.328;20.964;2022-10-16T04:12:56;100977.31;;;13.05;80.42
73398;BME280;63606;52.328;20.964;2022-10-16T04:15:23;100975.06;;;13.02;80.85
73398;BME280;63606;52.328;20.964;2022-10-16T04:17:49;100986.03;;;12.95;80.95
73398;BME280;63606;52.328;20.964;2022-10-16T04:20:14;100984.78;;;12.86;81.60
73398;BME280;63606;52.328;20.964;2022-10-16T04:22:40;100989.81;;;12.82;80.48
73398;BME280;63606;52.328;20.964;2022-10-16T04:25:05;100988.44;;;12.80;80.18
73398;BME280;63606;52.328;20.964;2022-10-16T04:27:31;100988.09;;;12.76;81.29
73398;BME280;63606;52.328;20.964;2022-10-16T04:30:00;100990.69;;;12.71;81.61
73398;BME280;63606;52.328;20.964;2022-10-16T04:32:26;100994.94;;;12.67;81.86
73398;BME280;63606;52.328;20.964;2022-10-16T04:34:51;100990.50;;;12.61;81.34
73398;BME280;63606;52.328;20.964;2022-10-16T04:37:17;100995.31;;;12.59;80.42
73398;BME280;63606;52.328;20.964;2022-10-16T04:39:43;100992.41;;;12.49;81.33
73398;BME280;63606;52.328;20.964;2022-10-16T04:42:08;101001.81;;;12.46;81.73
73398;BME280;63606;52.328;20.964;2022-10-16T04:44:34;100996.03;;;12.43;81.78
73398;BME280;63606;52.328;20.964;2022-10-16T04:46:59;101000.97;;;12.34;82.75
73398;BME280;63606;52.328;20.964;2022-10-16T04:49:25;101007.09;;;12.29;82.14
73398;BME280;63606;52.328;20.964;2022-10-16T04:51:50;101010.84;;;12.28;82.26
73398;BME280;63606;52.328;20.964;2022-10-16T04:54:16;101011.91;;;12.27;81.87
73398;BME280;63606;52.328;20.964;2022-10-16T04:56:41;101012.97;;;12.26;81.82
73398;BME280;63606;52.328;20.964;2022-10-16T04:59:16;101009.66;;;12.24;82.35
73398;BME280;63606;52.328;20.964;2022-10-16T05:01:42;101021.44;;;12.18;82.92
73398;BME280;63606;52.328;20.964;2022-10-16T05:04:08;101013.22;;;12.13;82.76
73398;BME280;63606;52.328;20.964;2022-10-16T05:06:34;101015.81;;;12.08;82.83
73398;BME280;63606;52.328;20.964;2022-10-16T05:08:59;101017.78;;;12.13;82.93
73398;BME280;63606;52.328;20.964;2022-10-16T05:11:25;101024.81;;;12.14;82.68
73398;BME280;63606;52.328;20.964;2022-10-16T05:13:51;101027.50;;;12.14;82.98
73398;BME280;63606;52.328;20.964;2022-10-16T05:16:16;101038.28;;;12.14;83.55
73398;BME280;63606;52.328;20.964;2022-10-16T05:18:42;101038.19;;;12.20;82.89
73398;BME280;63606;52.328;20.964;2022-10-16T05:21:08;101038.75;;;12.22;83.06
73398;BME280;63606;52.328;20.964;2022-10-16T05:23:33;101042.50;;;12.21;83.26
73398;BME280;63606;52.328;20.964;2022-10-16T05:26:00;101034.91;;;12.18;83.16
73398;BME280;63606;52.328;20.964;2022-10-16T05:28:29;101042.50;;;12.21;82.58
73398;BME280;63606;52.328;20.964;2022-10-16T05:30:56;101039.56;;;12.23;82.83
73398;BME280;63606;52.328;20.964;2022-10-16T05:33:23;101041.59;;;12.27;82.76
73398;BME280;63606;52.328;20.964;2022-10-16T05:35:50;101032.69;;;12.27;82.95
73398;BME280;63606;52.328;20.964;2022-10-16T05:38:17;101038.66;;;12.29;82.89
73398;BME280;63606;52.328;20.964;2022-10-16T05:40:43;101032.44;;;12.28;82.15
73398;BME280;63606;52.328;20.964;2022-10-16T05:43:09;101037.81;;;12.28;82.64
73398;BME280;63606;52.328;20.964;2022-10-16T05:45:34;101038.28;;;12.25;82.56
73398;BME280;63606;52.328;20.964;2022-10-16T05:48:00;101037.00;;;12.28;82.82
73398;BME280;63606;52.328;20.964;2022-10-16T05:50:26;101049.91;;;12.38;82.11
73398;BME280;63606;52.328;20.964;2022-10-16T05:52:52;101043.94;;;12.36;82.17
73398;BME280;63606;52.328;20.964;2022-10-16T05:55:17;101049.31;;;12.36;82.67
73398;BME280;63606;52.328;20.964;2022-10-16T05:57:43;101054.72;;;12.36;82.66
73398;BME280;63606;52.328;20.964;2022-10-16T06:00:09;101060.56;;;12.32;82.73
73398;BME280;63606;52.328;20.964;2022-10-16T06:02:35;101059.50;;;12.33;82.99
73398;BME280;63606;52.328;20.964;2022-10-16T06:05:01;101058.94;;;12.31;82.66
73398;BME280;63606;52.328;20.964;2022-10-16T06:07:26;101063.38;;;12.38;82.34
73398;BME280;63606;52.328;20.964;2022-10-16T06:09:52;101055.88;;;12.40;82.16
73398;BME280;63606;52.328;20.964;2022-10-16T06:12:18;101064.53;;;12.42;82.38
73398;BME280;63606;52.328;20.964;2022-10-16T06:14:45;101067.81;;;12.44;82.56
73398;BME280;63606;52.328;20.964;2022-10-16T06:17:13;101079.66;;;12.43;82.41
73398;BME280;63606;52.328;20.964;2022-10-16T06:19:38;101068.28;;;12.52;82.10
73398;BME280;63606;52.328;20.964;2022-10-16T06:22:04;101069.09;;;12.53;82.51
73398;BME280;63606;52.328;20.964;2022-10-16T06:24:29;101074.63;;;12.58;82.42
73398;BME280;63606;52.328;20.964;2022-10-16T06:26:55;101068.03;;;12.66;81.54
73398;BME280;63606;52.328;20.964;2022-10-16T06:29:20;101073.66;;;12.64;82.27
73398;BME280;63606;52.328;20.964;2022-10-16T06:31:46;101069.94;;;12.65;81.94
73398;BME280;63606;52.328;20.964;2022-10-16T06:34:11;101074.72;;;12.75;81.52
73398;BME280;63606;52.328;20.964;2022-10-16T06:36:38;101089.47;;;12.84;81.69
73398;BME280;63606;52.328;20.964;2022-10-16T06:39:05;101092.59;;;12.93;80.92
73398;BME280;63606;52.328;20.964;2022-10-16T06:41:33;101089.53;;;13.01;81.00
73398;BME280;63606;52.328;20.964;2022-10-16T06:43:58;101093.03;;;13.13;79.86
73398;BME280;63606;52.328;20.964;2022-10-16T06:46:25;101093.38;;;13.16;80.07
73398;BME280;63606;52.328;20.964;2022-10-16T06:48:52;101095.97;;;13.23;79.77
73398;BME280;63606;52.328;20.964;2022-10-16T06:51:20;101087.38;;;13.26;79.64
73398;BME280;63606;52.328;20.964;2022-10-16T06:53:53;101091.00;;;13.32;80.29
73398;BME280;63606;52.328;20.964;2022-10-16T06:56:21;101081.28;;;13.48;79.05
73398;BME280;63606;52.328;20.964;2022-10-16T06:58:48;101084.66;;;13.55;78.91
73398;BME280;63606;52.328;20.964;2022-10-16T07:01:16;101092.03;;;13.59;78.43
73398;BME280;63606;52.328;20.964;2022-10-16T07:03:43;101104.50;;;13.77;77.64
73398;BME280;63606;52.328;20.964;2022-10-16T07:06:11;101103.72;;;13.93;77.51
73398;BME280;63606;52.328;20.964;2022-10-16T07:08:39;101108.31;;;14.10;77.48
73398;BME280;63606;52.328;20.964;2022-10-16T07:11:11;101097.16;;;14.23;76.24
73398;BME280;63606;52.328;20.964;2022-10-16T07:13:38;101108.63;;;14.30;76.38
73398;BME280;63606;52.328;20.964;2022-10-16T07:16:09;101114.84;;;14.30;75.66
73398;BME280;63606;52.328;20.964;2022-10-16T07:18:35;101125.13;;;14.28;76.01
73398;BME280;63606;52.328;20.964;2022-10-16T07:21:18;101119.91;;;14.27;76.37
73398;BME280;63606;52.328;20.964;2022-10-16T07:23:44;101123.22;;;14.29;76.30
73398;BME280;63606;52.328;20.964;2022-10-16T07:26:11;101115.72;;;14.36;75.22
73398;BME280;63606;52.328;20.964;2022-10-16T07:28:37;101107.00;;;14.29;76.05
73398;BME280;63606;52.328;20.964;2022-10-16T07:31:09;101120.41;;;14.24;75.88
73398;BME280;63606;52.328;20.964;2022-10-16T07:33:39;101115.00;;;14.24;76.77
73398;BME280;63606;52.328;20.964;2022-10-16T07:36:07;101111.91;;;14.32;76.43
73398;BME280;63606;52.328;20.964;2022-10-16T07:38:33;101109.19;;;14.32;75.44
73398;BME280;63606;52.328;20.964;2022-10-16T07:41:00;101103.78;;;14.32;76.29
73398;BME280;63606;52.328;20.964;2022-10-16T07:43:27;101096.97;;;14.46;75.53
73398;BME280;63606;52.328;20.964;2022-10-16T07:45:53;101099.25;;;14.54;74.67
73398;BME280;63606;52.328;20.964;2022-10-16T07:48:19;101094.47;;;14.62;74.99
73398;BME280;63606;52.328;20.964;2022-10-16T07:50:45;101087.06;;;14.74;74.45
73398;BME280;63606;52.328;20.964;2022-10-16T07:53:11;101091.47;;;14.80;73.83
73398;BME280;63606;52.328;20.964;2022-10-16T07:55:37;101100.28;;;14.92;73.70
73398;BME280;63606;52.328;20.964;2022-10-16T07:58:03;101111.94;;;14.93;74.07
73398;BME280;63606;52.328;20.964;2022-10-16T08:00:30;101104.47;;;15.00;73.66
73398;BME280;63606;52.328;20.964;2022-10-16T08:02:56;101119.47;;;15.07;73.80
73398;BME280;63606;52.328;20.964;2022-10-16T08:05:26;101116.75;;;15.07;73.32
73398;BME280;63606;52.328;20.964;2022-10-16T08:07:51;101133.88;;;15.13;72.92
73398;BME280;63606;52.328;20.964;2022-10-16T08:10:18;101135.84;;;15.17;73.59
73398;BME280;63606;52.328;20.964;2022-10-16T08:12:44;101137.97;;;15.15;72.71
73398;BME280;63606;52.328;20.964;2022-10-16T08:15:10;101149.75;;;15.26;72.93
73398;BME280;63606;52.328;20.964;2022-10-16T08:17:36;101140.34;;;15.34;72.45
73398;BME280;63606;52.328;20.964;2022-10-16T08:20:02;101145.66;;;15.45;72.48
73398;BME280;63606;52.328;20.964;2022-10-16T08:22:27;101136.81;;;15.55;72.72
73398;BME280;63606;52.328;20.964;2022-10-16T08:24:53;101133.44;;;15.70;71.97
73398;BME280;63606;52.328;20.964;2022-10-16T08:27:18;101132.09;;;15.72;72.57
73398;BME280;63606;52.328;20.964;2022-10-16T08:29:44;101146.84;;;15.82;71.26
73398;BME280;63606;52.328;20.964;2022-10-16T08:32:09;101145.31;;;15.91;70.76
73398;BME280;63606;52.328;20.964;2022-10-16T08:34:35;101144.47;;;15.90;71.46
73398;BME280;63606;52.328;20.964;2022-10-16T08:37:00;101149.63;;;15.87;71.18
73398;BME280;63606;52.328;20.964;2022-10-16T08:39:26;101152.69;;;15.95;70.99
73398;BME280;63606;52.328;20.964;2022-10-16T08:42:11;101143.81;;;16.05;71.80
73398;BME280;63606;52.328;20.964;2022-10-16T08:48:27;101147.28;;;16.33;71.31
73398;BME280;63606;52.328;20.964;2022-10-16T08:50:37;101146.31;;;16.49;70.32
73398;BME280;63606;52.328;20.964;2022-10-16T08:53:04;101139.56;;;16.56;71.02
73398;BME280;63606;52.328;20.964;2022-10-16T08:55:37;101143.50;;;16.71;70.77
73398;BME280;63606;52.328;20.964;2022-10-16T08:58:13;101149.28;;;16.84;69.61
73398;BME280;63606;52.328;20.964;2022-10-16T09:00:40;101153.34;;;16.82;70.19
73398;BME280;63606;52.328;20.964;2022-10-16T09:06:40;101154.22;;;16.93;69.47
73398;BME280;63606;52.328;20.964;2022-10-16T09:11:45;101149.97;;;17.12;69.12
73398;BME280;63606;52.328;20.964;2022-10-16T09:17:40;101143.22;;;17.35;68.06
73398;BME280;63606;52.328;20.964;2022-10-16T09:25:46;101140.38;;;17.77;66.46
73398;BME280;63606;52.328;20.964;2022-10-16T09:28:13;101141.72;;;17.85;66.00
73398;BME280;63606;52.328;20.964;2022-10-16T09:30:39;101141.47;;;17.91;66.79
73398;BME280;63606;52.328;20.964;2022-10-16T09:33:05;101137.97;;;17.96;66.35
73398;BME280;63606;52.328;20.964;2022-10-16T09:35:45;101143.13;;;18.13;65.92
73398;BME280;63606;52.328;20.964;2022-10-16T09:38:41;101147.75;;;18.12;66.06
73398;BME280;63606;52.328;20.964;2022-10-16T09:41:18;101147.47;;;18.09;65.66
73398;BME280;63606;52.328;20.964;2022-10-16T09:43:57;101145.84;;;18.02;66.03
73398;BME280;63606;52.328;20.964;2022-10-16T09:46:31;101138.78;;;18.07;66.83
73398;BME280;63606;52.328;20.964;2022-10-16T09:49:01;101141.50;;;18.17;65.93
73398;BME280;63606;52.328;20.964;2022-10-16T09:51:37;101145.28;;;18.21;65.76
73398;BME280;63606;52.328;20.964;2022-10-16T09:56:36;101161.09;;;18.34;65.41
73398;BME280;63606;52.328;20.964;2022-10-16T09:59:11;101152.13;;;18.34;64.77
73398;BME280;63606;52.328;20.964;2022-10-16T10:01:40;101161.09;;;18.29;65.46
73398;BME280;63606;52.328;20.964;2022-10-16T10:04:07;101152.34;;;18.47;65.36
73398;BME280;63606;52.328;20.964;2022-10-16T10:06:52;101151.00;;;18.65;64.51
73398;BME280;63606;52.328;20.964;2022-10-16T10:11:58;101145.09;;;19.23;62.78
73398;BME280;63606;52.328;20.964;2022-10-16T10:14:31;101132.09;;;19.49;61.58
73398;BME280;63606;52.328;20.964;2022-10-16T10:19:29;101129.50;;;19.78;61.20
73398;BME280;63606;52.328;20.964;2022-10-16T10:21:55;101124.84;;;19.78;61.03
73398;BME280;63606;52.328;20.964;2022-10-16T10:24:20;101129.31;;;19.69;61.62
73398;BME280;63606;52.328;20.964;2022-10-16T10:27:18;101129.34;;;19.59;61.05
73398;BME280;63606;52.328;20.964;2022-10-16T10:30:15;101120.44;;;19.43;61.23
73398;BME280;63606;52.328;20.964;2022-10-16T10:43:49;101121.09;;;19.20;62.93
73398;BME280;63606;52.328;20.964;2022-10-16T10:49:20;101118.97;;;19.11;62.59
73398;BME280;63606;52.328;20.964;2022-10-16T10:55:08;101112.84;;;19.30;62.80
73398;BME280;63606;52.328;20.964;2022-10-16T11:00:32;101125.34;;;19.41;62.25
73398;BME280;63606;52.328;20.964;2022-10-16T11:03:15;101130.25;;;19.44;61.60
73398;BME280;63606;52.328;20.964;2022-10-16T11:05:49;101131.25;;;19.63;61.42
73398;BME280;63606;52.328;20.964;2022-10-16T11:08:33;101131.16;;;19.79;61.95
73398;BME280;63606;52.328;20.964;2022-10-16T11:11:09;101132.13;;;19.93;60.41
73398;BME280;63606;52.328;20.964;2022-10-16T11:16:21;101125.91;;;20.16;59.99
73398;BME280;63606;52.328;20.964;2022-10-16T11:22:17;101114.34;;;20.29;59.33
73398;BME280;63606;52.328;20.964;2022-10-16T11:25:31;101112.75;;;20.23;58.92
73398;BME280;63606;52.328;20.964;2022-10-16T11:27:40;101115.25;;;20.20;58.66
73398;BME280;63606;52.328;20.964;2022-10-16T11:30:28;101126.00;;;20.06;59.46
73398;BME280;63606;52.328;20.964;2022-10-16T11:38:19;101131.44;;;20.11;59.28
73398;BME280;63606;52.328;20.964;2022-10-16T11:40:54;101129.28;;;20.08;59.29
73398;BME280;63606;52.328;20.964;2022-10-16T11:43:36;101130.09;;;20.09;59.45
73398;BME280;63606;52.328;20.964;2022-10-16T11:46:30;101133.59;;;20.14;60.73
73398;BME280;63606;52.328;20.964;2022-10-16T11:49:06;101124.88;;;20.12;59.77
73398;BME280;63606;52.328;20.964;2022-10-16T11:51:39;101115.34;;;20.10;59.39
73398;BME280;63606;52.328;20.964;2022-10-16T11:56:40;101118.50;;;20.22;59.28
73398;BME280;63606;52.328;20.964;2022-10-16T11:59:32;101121.94;;;20.33;59.03
73398;BME280;63606;52.328;20.964;2022-10-16T12:07:14;101120.84;;;20.34;59.21
73398;BME280;63606;52.328;20.964;2022-10-16T12:09:41;101121.94;;;20.33;61.10
73398;BME280;63606;52.328;20.964;2022-10-16T12:12:47;101131.44;;;20.40;58.80
73398;BME280;63606;52.328;20.964;2022-10-16T12:17:44;101131.69;;;20.44;59.44
73398;BME280;63606;52.328;20.964;2022-10-16T12:22:48;101128.72;;;20.69;59.19
73398;BME280;63606;52.328;20.964;2022-10-16T12:28:39;101138.50;;;20.75;58.27
73398;BME280;63606;52.328;20.964;2022-10-16T12:30:40;101144.97;;;20.84;57.58
73398;BME280;63606;52.328;20.964;2022-10-16T12:33:21;101139.09;;;20.96;57.87
73398;BME280;63606;52.328;20.964;2022-10-16T12:35:47;101133.78;;;21.05;58.05
73398;BME280;63606;52.328;20.964;2022-10-16T12:38:21;101143.53;;;21.11;57.07
73398;BME280;63606;52.328;20.964;2022-10-16T12:40:59;101138.34;;;21.09;56.77
73398;BME280;63606;52.328;20.964;2022-10-16T12:48:35;101147.00;;;20.98;57.44
73398;BME280;63606;52.328;20.964;2022-10-16T13:00:11;101144.81;;;21.42;55.87
73398;BME280;63606;52.328;20.964;2022-10-16T13:02:48;101147.31;;;21.39;56.09
73398;BME280;63606;52.328;20.964;2022-10-16T13:16:38;101171.56;;;20.50;59.35
73398;BME280;63606;52.328;20.964;2022-10-16T13:22:30;101173.19;;;20.51;59.73
73398;BME280;63606;52.328;20.964;2022-10-16T13:28:01;101173.97;;;20.56;58.82
73398;BME280;63606;52.328;20.964;2022-10-16T13:30:29;101174.22;;;20.55;59.39
73398;BME280;63606;52.328;20.964;2022-10-16T13:33:13;101172.88;;;20.52;59.58
73398;BME280;63606;52.328;20.964;2022-10-16T13:35:50;101174.00;;;20.51;59.77
73398;BME280;63606;52.328;20.964;2022-10-16T13:38:18;101181.97;;;20.48;59.09
73398;BME280;63606;52.328;20.964;2022-10-16T13:43:22;101184.19;;;20.41;60.31
73398;BME280;63606;52.328;20.964;2022-10-16T13:46:06;101186.72;;;20.32;60.32
73398;BME280;63606;52.328;20.964;2022-10-16T13:48:33;101184.03;;;20.27;60.13
73398;BME280;63606;52.328;20.964;2022-10-16T13:51:04;101179.94;;;20.24;60.39
73398;BME280;63606;52.328;20.964;2022-10-16T13:53:32;101175.66;;;20.13;61.40
73398;BME280;63606;52.328;20.964;2022-10-16T13:55:58;101165.81;;;20.17;61.98
73398;BME280;63606;52.328;20.964;2022-10-16T13:58:25;101166.63;;;20.18;60.73
73398;BME280;63606;52.328;20.964;2022-10-16T14:03:43;101171.31;;;20.12;60.84
73398;BME280;63606;52.328;20.964;2022-10-16T14:06:14;101169.38;;;20.13;60.90
73398;BME280;63606;52.328;20.964;2022-10-16T14:08:55;101177.88;;;20.11;61.02
73398;BME280;63606;52.328;20.964;2022-10-16T14:11:23;101184.44;;;20.10;62.05
73398;BME280;63606;52.328;20.964;2022-10-16T14:13:49;101181.19;;;20.08;61.93
73398;BME280;63606;52.328;20.964;2022-10-16T14:16:18;101178.16;;;20.10;61.37
73398;BME280;63606;52.328;20.964;2022-10-16T14:19:20;101179.78;;;20.11;63.04
73398;BME280;63606;52.328;20.964;2022-10-16T14:21:46;101185.78;;;20.13;61.90
73398;BME280;63606;52.328;20.964;2022-10-16T14:24:13;101183.34;;;20.11;62.87
73398;BME280;63606;52.328;20.964;2022-10-16T14:26:43;101187.69;;;20.12;61.83
73398;BME280;63606;52.328;20.964;2022-10-16T14:29:15;101191.53;;;20.11;62.05
73398;BME280;63606;52.328;20.964;2022-10-16T14:31:42;101196.47;;;20.09;63.31
73398;BME280;63606;52.328;20.964;2022-10-16T14:34:29;101196.19;;;20.06;62.50
73398;BME280;63606;52.328;20.964;2022-10-16T14:36:56;101194.56;;;20.05;63.42
73398;BME280;63606;52.328;20.964;2022-10-16T14:39:23;101206.31;;;20.05;62.90
73398;BME280;63606;52.328;20.964;2022-10-16T14:41:51;101198.63;;;20.07;62.32
73398;BME280;63606;52.328;20.964;2022-10-16T14:44:18;101200.31;;;20.03;62.77
73398;BME280;63606;52.328;20.964;2022-10-16T14:46:45;101206.06;;;20.01;64.57
73398;BME280;63606;52.328;20.964;2022-10-16T14:51:37;101197.91;;;19.96;63.16
73398;BME280;63606;52.328;20.964;2022-10-16T14:54:03;101192.72;;;19.95;64.24
73398;BME280;63606;52.328;20.964;2022-10-16T14:56:34;101201.19;;;19.98;65.64